Naples, FL (34101)

4:55 PM EDT on July 27, 2016 (GMT -0400)
Flamingo Estates | | Change Station

Elev 23 ft 26.14 °N, 81.75 °W | Updated 8 seconds ago

Light Thunderstorms and Rain
Light Thunderstorm Rain
77.5 °F
Feels Like 79 °F
N
2.7
Wind Variable Wind from NNW

Today
High -- | Low -- °F
--% Chance of Precip.
Yesterday
High -- | Low -- °F
Precip. -- in
Pressure 30.02 in
Visibility 5.0 miles
Clouds Scattered Clouds 2100 ft
Mostly Cloudy 4200 ft
Overcast 5500 ft
Heat Index 79 °F
Dew Point 74 °F
Humidity 89%
Rainfall 0.30 in
Snow Depth Not available.
6:50 AM 8:16 PM
Last Quarter, 40% visible
SPECI KAPF 271955Z 24011KT 5SM -TSRA SCT021 BKN042 OVC055 28/23 A3002 RMK AO2 LTG DSNT SE P0000 T02780233
Pressure 30.02 in
Visibility 5.0 miles
Clouds Scattered Clouds 2100 ft
Mostly Cloudy 4200 ft
Overcast 5500 ft
Heat Index 79 °F
Dew Point 74 °F
Humidity 89%
Rainfall 0.30 in
Snow Depth Not available.
6:50 AM 8:16 PM
Last Quarter, 40% visible
SPECI KAPF 271955Z 24011KT 5SM -TSRA SCT021 BKN042 OVC055 28/23 A3002 RMK AO2 LTG DSNT SE P0000 T02780233

10-Day Weather Forecast

Almanac

Astronomy

Jul. 27, 2016 Rise Set
Actual Time
Civil Twilight
Nautical Twilight
Astronomical Twilight
Moon
Length of Visible Light
Length of Day
Tomorrow will be .
, % of the Moon is Illuminated

Today's Extremes

State Highs State Lows

Community

WunderPhotos

Upload Photos

1,927,933 photos uploaded!

WunderBlog® & News

Nearby

Air Quality

  Air Quality AQ Index Pollutant
Not available.

Snow Depth

Station Depth Elevation

Earthquake Activity

City Distance Mag. Time & Date
Minimum magnitude displayed is 2.5.

Coastal Water Temperatures

Place Temperature

Stations

Nearby Weather Stations

Station Location Temp. Windchill Dew Point Humidity Wind Precip. Elev Updated Type
                   

Watches & Warnings

There are currently no watches in effect.